sensor_id;sensor_type;location;lat;lon;timestamp;pressure;altitude;pressure_sealevel;temperature;humidity
56174;BME280;42058;52.308;20.924;2022-11-24T00:01:04;100097.03;;;-0.94;100.00
56174;BME280;42058;52.308;20.924;2022-11-24T00:03:35;100110.38;;;-0.93;100.00
56174;BME280;42058;52.308;20.924;2022-11-24T00:06:04;100106.09;;;-0.91;100.00
56174;BME280;42058;52.308;20.924;2022-11-24T00:08:33;100110.43;;;-0.90;100.00
56174;BME280;42058;52.308;20.924;2022-11-24T00:11:08;100117.34;;;-0.89;100.00
56174;BME280;42058;52.308;20.924;2022-11-24T00:13:35;100111.31;;;-0.88;100.00
56174;BME280;42058;52.308;20.924;2022-11-24T00:16:11;100120.79;;;-0.89;100.00
56174;BME280;42058;52.308;20.924;2022-11-24T00:18:36;100122.05;;;-0.90;100.00
56174;BME280;42058;52.308;20.924;2022-11-24T00:21:03;100122.05;;;-0.90;100.00
56174;BME280;42058;52.308;20.924;2022-11-24T00:23:30;100120.77;;;-0.90;100.00
56174;BME280;42058;52.308;20.924;2022-11-24T00:26:05;100126.76;;;-0.91;100.00
56174;BME280;42058;52.308;20.924;2022-11-24T00:28:36;100118.55;;;-0.94;100.00
56174;BME280;42058;52.308;20.924;2022-11-24T00:31:05;100116.83;;;-0.93;100.00
56174;BME280;42058;52.308;20.924;2022-11-24T00:33:39;100121.57;;;-0.94;100.00
56174;BME280;42058;52.308;20.924;2022-11-24T00:36:05;100113.77;;;-0.98;100.00
56174;BME280;42058;52.308;20.924;2022-11-24T00:38:31;100107.31;;;-0.98;100.00
56174;BME280;42058;52.308;20.924;2022-11-24T00:40:58;100114.23;;;-0.97;100.00
56174;BME280;42058;52.308;20.924;2022-11-24T00:43:24;100113.80;;;-0.96;100.00
56174;BME280;42058;52.308;20.924;2022-11-24T00:45:50;100111.66;;;-0.93;100.00
56174;BME280;42058;52.308;20.924;2022-11-24T00:48:16;100102.20;;;-0.94;100.00
56174;BME280;42058;52.308;20.924;2022-11-24T00:50:42;100094.93;;;-0.90;100.00
56174;BME280;42058;52.308;20.924;2022-11-24T00:53:08;100100.56;;;-0.89;100.00
56174;BME280;42058;52.308;20.924;2022-11-24T00:55:34;100109.59;;;-0.88;100.00
56174;BME280;42058;52.308;20.924;2022-11-24T00:58:00;100119.53;;;-0.87;100.00
56174;BME280;42058;52.308;20.924;2022-11-24T01:00:26;100119.06;;;-0.88;100.00
56174;BME280;42058;52.308;20.924;2022-11-24T01:02:53;100118.64;;;-0.89;100.00
56174;BME280;42058;52.308;20.924;2022-11-24T01:05:19;100119.04;;;-0.90;100.00
56174;BME280;42058;52.308;20.924;2022-11-24T01:07:45;100103.52;;;-0.91;100.00
56174;BME280;42058;52.308;20.924;2022-11-24T01:10:11;100100.09;;;-0.90;100.00
56174;BME280;42058;52.308;20.924;2022-11-24T01:12:38;100109.14;;;-0.90;100.00
56174;BME280;42058;52.308;20.924;2022-11-24T01:15:06;100104.44;;;-0.89;100.00
56174;BME280;42058;52.308;20.924;2022-11-24T01:17:33;100103.14;;;-0.89;100.00
56174;BME280;42058;52.308;20.924;2022-11-24T01:19:59;100108.73;;;-0.88;100.00
56174;BME280;42058;52.308;20.924;2022-11-24T01:22:25;100100.98;;;-0.88;100.00
56174;BME280;42058;52.308;20.924;2022-11-24T01:24:52;100114.39;;;-0.86;100.00
56174;BME280;42058;52.308;20.924;2022-11-24T01:27:18;100113.95;;;-0.85;100.00
56174;BME280;42058;52.308;20.924;2022-11-24T01:29:44;100115.66;;;-0.87;100.00
56174;BME280;42058;52.308;20.924;2022-11-24T01:32:10;100112.58;;;-0.90;100.00
56174;BME280;42058;52.308;20.924;2022-11-24T01:34:37;100113.47;;;-0.89;100.00
56174;BME280;42058;52.308;20.924;2022-11-24T01:37:03;100112.61;;;-0.88;100.00
56174;BME280;42058;52.308;20.924;2022-11-24T01:39:29;100113.90;;;-0.88;100.00
56174;BME280;42058;52.308;20.924;2022-11-24T01:41:55;100105.30;;;-0.89;100.00
56174;BME280;42058;52.308;20.924;2022-11-24T01:44:27;100109.59;;;-0.89;100.00
56174;BME280;42058;52.308;20.924;2022-11-24T01:46:57;100107.02;;;-0.89;100.00
56174;BME280;42058;52.308;20.924;2022-11-24T01:49:42;100111.72;;;-0.90;100.00
56174;BME280;42058;52.308;20.924;2022-11-24T01:52:16;100111.72;;;-0.90;100.00
56174;BME280;42058;52.308;20.924;2022-11-24T01:54:48;100110.43;;;-0.90;100.00
56174;BME280;42058;52.308;20.924;2022-11-24T01:57:21;100109.14;;;-0.90;100.00
56174;BME280;42058;52.308;20.924;2022-11-24T01:59:51;100102.70;;;-0.89;100.00
56174;BME280;42058;52.308;20.924;2022-11-24T02:02:20;100099.69;;;-0.88;100.00
56174;BME280;42058;52.308;20.924;2022-11-24T02:04:47;100099.69;;;-0.88;100.00
56174;BME280;42058;52.308;20.924;2022-11-24T02:07:13;100099.69;;;-0.88;100.00
56174;BME280;42058;52.308;20.924;2022-11-24T02:09:44;100110.02;;;-0.88;100.00
56174;BME280;42058;52.308;20.924;2022-11-24T02:12:10;100103.13;;;-0.88;100.00
56174;BME280;42058;52.308;20.924;2022-11-24T02:14:37;100101.45;;;-0.87;100.00
56174;BME280;42058;52.308;20.924;2022-11-24T02:17:05;100104.91;;;-0.85;100.00
56174;BME280;42058;52.308;20.924;2022-11-24T02:22:26;100094.53;;;-0.88;100.00
56174;BME280;42058;52.308;20.924;2022-11-24T02:25:10;100111.80;;;-0.86;100.00
56174;BME280;42058;52.308;20.924;2022-11-24T02:27:34;100106.18;;;-0.87;100.00
56174;BME280;42058;52.308;20.924;2022-11-24T02:30:00;100115.68;;;-0.86;100.00
56174;BME280;42058;52.308;20.924;2022-11-24T02:32:27;100106.63;;;-0.84;100.00
56174;BME280;42058;52.308;20.924;2022-11-24T02:35:05;100102.77;;;-0.86;100.00
56174;BME280;42058;52.308;20.924;2022-11-24T02:37:31;100106.15;;;-0.88;100.00
56174;BME280;42058;52.308;20.924;2022-11-24T02:39:57;100105.27;;;-0.90;100.00
56174;BME280;42058;52.308;20.924;2022-11-24T02:42:25;100102.70;;;-0.89;100.00
56174;BME280;42058;52.308;20.924;2022-11-24T02:44:56;100102.70;;;-0.89;100.00
56174;BME280;42058;52.308;20.924;2022-11-24T02:47:24;100100.98;;;-0.88;100.00
56174;BME280;42058;52.308;20.924;2022-11-24T02:49:50;100098.86;;;-0.87;100.00
56174;BME280;42058;52.308;20.924;2022-11-24T02:52:16;100098.45;;;-0.85;100.00
56174;BME280;42058;52.308;20.924;2022-11-24T02:54:42;100094.58;;;-0.85;100.00
56174;BME280;42058;52.308;20.924;2022-11-24T02:57:09;100092.43;;;-0.86;100.00
56174;BME280;42058;52.308;20.924;2022-11-24T02:59:36;100100.18;;;-0.86;100.00
56174;BME280;42058;52.308;20.924;2022-11-24T03:02:03;100097.59;;;-0.84;100.00
56174;BME280;42058;52.308;20.924;2022-11-24T03:04:29;100094.17;;;-0.83;100.00
56174;BME280;42058;52.308;20.924;2022-11-24T03:06:55;100093.72;;;-0.84;100.00
56174;BME280;42058;52.308;20.924;2022-11-24T03:09:23;100099.34;;;-0.83;100.00
56174;BME280;42058;52.308;20.924;2022-11-24T03:11:49;100096.30;;;-0.84;100.00
56174;BME280;42058;52.308;20.924;2022-11-24T03:14:15;100110.53;;;-0.83;100.00
56174;BME280;42058;52.308;20.924;2022-11-24T03:16:41;100106.66;;;-0.83;100.00
56174;BME280;42058;52.308;20.924;2022-11-24T03:19:07;100104.54;;;-0.82;100.00
56174;BME280;42058;52.308;20.924;2022-11-24T03:21:35;100104.96;;;-0.81;100.00
56174;BME280;42058;52.308;20.924;2022-11-24T03:24:01;100106.26;;;-0.82;100.00
56174;BME280;42058;52.308;20.924;2022-11-24T03:26:27;100101.52;;;-0.81;100.00
56174;BME280;42058;52.308;20.924;2022-11-24T03:28:54;100103.67;;;-0.82;100.00
56174;BME280;42058;52.308;20.924;2022-11-24T03:31:23;100095.47;;;-0.83;100.00
56174;BME280;42058;52.308;20.924;2022-11-24T03:33:49;100098.48;;;-0.84;100.00
56174;BME280;42058;52.308;20.924;2022-11-24T03:36:15;100101.47;;;-0.84;100.00
56174;BME280;42058;52.308;20.924;2022-11-24T03:38:41;100099.31;;;-0.85;100.00
56174;BME280;42058;52.308;20.924;2022-11-24T03:41:08;100100.17;;;-0.84;100.00
56174;BME280;42058;52.308;20.924;2022-11-24T03:43:34;100105.34;;;-0.84;100.00
56174;BME280;42058;52.308;20.924;2022-11-24T03:46:00;100099.27;;;-0.89;100.00
56174;BME280;42058;52.308;20.924;2022-11-24T03:48:26;100100.63;;;-0.83;100.00
56174;BME280;42058;52.308;20.924;2022-11-24T03:50:57;100108.84;;;-0.82;100.00
56174;BME280;42058;52.308;20.924;2022-11-24T03:53:27;100123.91;;;-0.82;100.00
56174;BME280;42058;52.308;20.924;2022-11-24T03:55:54;100116.19;;;-0.80;100.00
56174;BME280;42058;52.308;20.924;2022-11-24T03:58:21;100126.95;;;-0.79;100.00
56174;BME280;42058;52.308;20.924;2022-11-24T04:00:49;100115.30;;;-0.81;100.00
56174;BME280;42058;52.308;20.924;2022-11-24T04:03:17;100124.77;;;-0.81;100.00
56174;BME280;42058;52.308;20.924;2022-11-24T04:05:44;100124.74;;;-0.83;100.00
56174;BME280;42058;52.308;20.924;2022-11-24T04:08:11;100123.91;;;-0.82;100.00
56174;BME280;42058;52.308;20.924;2022-11-24T04:10:38;100118.77;;;-0.80;100.00
56174;BME280;42058;52.308;20.924;2022-11-24T04:13:10;100114.03;;;-0.79;100.00
56174;BME280;42058;52.308;20.924;2022-11-24T04:15:39;100120.95;;;-0.78;100.00
56174;BME280;42058;52.308;20.924;2022-11-24T04:18:08;100123.13;;;-0.76;100.00
56174;BME280;42058;52.308;20.924;2022-11-24T04:20:35;100125.28;;;-0.75;100.00
56174;BME280;42058;52.308;20.924;2022-11-24T04:23:02;100133.89;;;-0.75;100.00
56174;BME280;42058;52.308;20.924;2022-11-24T04:25:28;100125.28;;;-0.75;100.00
56174;BME280;42058;52.308;20.924;2022-11-24T04:27:55;100114.09;;;-0.76;100.00
56174;BME280;42058;52.308;20.924;2022-11-24T04:30:24;100102.89;;;-0.75;100.00
56174;BME280;42058;52.308;20.924;2022-11-24T04:32:51;100102.05;;;-0.74;100.00
56174;BME280;42058;52.308;20.924;2022-11-24T04:35:17;100115.42;;;-0.71;100.00
56174;BME280;42058;52.308;20.924;2022-11-24T04:37:44;100117.58;;;-0.72;100.00
56174;BME280;42058;52.308;20.924;2022-11-24T04:40:11;100127.95;;;-0.71;100.00
56174;BME280;42058;52.308;20.924;2022-11-24T04:42:38;100133.52;;;-0.73;100.00
56174;BME280;42058;52.308;20.924;2022-11-24T04:45:05;100127.05;;;-0.71;100.00
56174;BME280;42058;52.308;20.924;2022-11-24T04:47:32;100125.77;;;-0.73;100.00
56174;BME280;42058;52.308;20.924;2022-11-24T04:49:58;100133.11;;;-0.71;100.00
56174;BME280;42058;52.308;20.924;2022-11-24T04:52:25;100140.87;;;-0.71;100.00
56174;BME280;42058;52.308;20.924;2022-11-24T04:54:51;100141.72;;;-0.70;100.00
56174;BME280;42058;52.308;20.924;2022-11-24T04:57:24;100140.87;;;-0.71;100.00
56174;BME280;42058;52.308;20.924;2022-11-24T04:59:50;100153.78;;;-0.71;100.00
56174;BME280;42058;52.308;20.924;2022-11-24T05:02:18;100143.42;;;-0.72;100.00
56174;BME280;42058;52.308;20.924;2022-11-24T05:04:45;100143.45;;;-0.71;100.00
56174;BME280;42058;52.308;20.924;2022-11-24T05:07:13;100132.20;;;-0.74;100.00
56174;BME280;42058;52.308;20.924;2022-11-24T05:09:40;100138.30;;;-0.68;100.00
56174;BME280;42058;52.308;20.924;2022-11-24T05:12:25;100129.27;;;-0.69;100.00
56174;BME280;42058;52.308;20.924;2022-11-24T05:14:54;100129.72;;;-0.67;100.00
56174;BME280;42058;52.308;20.924;2022-11-24T05:17:20;100142.61;;;-0.68;100.00
56174;BME280;42058;52.308;20.924;2022-11-24T05:19:46;100143.88;;;-0.70;100.00
56174;BME280;42058;52.308;20.924;2022-11-24T05:22:12;100138.25;;;-0.72;100.00
56174;BME280;42058;52.308;20.924;2022-11-24T05:24:38;100149.05;;;-0.70;100.00
56174;BME280;42058;52.308;20.924;2022-11-24T05:27:04;100147.75;;;-0.70;100.00
56174;BME280;42058;52.308;20.924;2022-11-24T05:29:30;100145.17;;;-0.70;100.00
56174;BME280;42058;52.308;20.924;2022-11-24T05:31:56;100153.81;;;-0.69;100.00
56174;BME280;42058;52.308;20.924;2022-11-24T05:34:23;100160.67;;;-0.70;100.00
56174;BME280;42058;52.308;20.924;2022-11-24T05:36:49;100158.09;;;-0.70;100.00
56174;BME280;42058;52.308;20.924;2022-11-24T05:39:19;100158.55;;;-0.69;100.00
56174;BME280;42058;52.308;20.924;2022-11-24T05:41:45;100152.09;;;-0.69;100.00
56174;BME280;42058;52.308;20.924;2022-11-24T05:44:12;100159.87;;;-0.67;100.00
56174;BME280;42058;52.308;20.924;2022-11-24T05:46:38;100165.01;;;-0.69;100.00
56174;BME280;42058;52.308;20.924;2022-11-24T05:49:04;100166.73;;;-0.69;100.00
56174;BME280;42058;52.308;20.924;2022-11-24T05:51:30;100171.47;;;-0.69;100.00
56174;BME280;42058;52.308;20.924;2022-11-24T05:53:57;100170.15;;;-0.70;100.00
56174;BME280;42058;52.308;20.924;2022-11-24T05:56:24;100168.02;;;-0.69;100.00
56174;BME280;42058;52.308;20.924;2022-11-24T05:58:50;100170.17;;;-0.69;100.00
56174;BME280;42058;52.308;20.924;2022-11-24T06:01:16;100173.64;;;-0.67;100.00
56174;BME280;42058;52.308;20.924;2022-11-24T06:03:42;100175.40;;;-0.66;100.00
56174;BME280;42058;52.308;20.924;2022-11-24T06:06:09;100180.11;;;-0.67;100.00
56174;BME280;42058;52.308;20.924;2022-11-24T06:08:35;100183.15;;;-0.66;100.00
56174;BME280;42058;52.308;20.924;2022-11-24T06:11:01;100189.61;;;-0.64;100.00
56174;BME280;42058;52.308;20.924;2022-11-24T06:13:29;100192.59;;;-0.66;100.00
56174;BME280;42058;52.308;20.924;2022-11-24T06:15:57;100194.34;;;-0.65;100.00
56174;BME280;42058;52.308;20.924;2022-11-24T06:18:24;100188.31;;;-0.66;100.00
56174;BME280;42058;52.308;20.924;2022-11-24T06:20:50;100191.80;;;-0.64;100.00
56174;BME280;42058;52.308;20.924;2022-11-24T06:23:16;100196.09;;;-0.63;100.00
56174;BME280;42058;52.308;20.924;2022-11-24T06:25:43;100193.97;;;-0.62;100.00
56174;BME280;42058;52.308;20.924;2022-11-24T06:28:12;100201.72;;;-0.62;100.00
56174;BME280;42058;52.308;20.924;2022-11-24T06:30:38;100199.14;;;-0.62;100.00
56174;BME280;42058;52.308;20.924;2022-11-24T06:33:04;100190.98;;;-0.60;100.00
56174;BME280;42058;52.308;20.924;2022-11-24T06:35:31;100166.13;;;-0.80;100.00
56174;BME280;42058;52.308;20.924;2022-11-24T06:37:57;100203.96;;;-0.56;100.00
56174;BME280;42058;52.308;20.924;2022-11-24T06:40:23;100205.25;;;-0.56;100.00
56174;BME280;42058;52.308;20.924;2022-11-24T06:42:50;100195.77;;;-0.56;100.00
56174;BME280;42058;52.308;20.924;2022-11-24T06:45:17;100203.09;;;-0.55;100.00
56174;BME280;42058;52.308;20.924;2022-11-24T06:47:43;100196.63;;;-0.55;100.00
56174;BME280;42058;52.308;20.924;2022-11-24T06:50:11;100189.31;;;-0.56;100.00
56174;BME280;42058;52.308;20.924;2022-11-24T06:52:37;100191.04;;;-0.56;100.00
56174;BME280;42058;52.308;20.924;2022-11-24T06:55:06;100191.04;;;-0.56;100.00
56174;BME280;42058;52.308;20.924;2022-11-24T06:57:33;100202.20;;;-0.57;100.00
56174;BME280;42058;52.308;20.924;2022-11-24T07:00:00;100203.53;;;-0.56;100.00
56174;BME280;42058;52.308;20.924;2022-11-24T07:02:26;100203.09;;;-0.55;100.00
56174;BME280;42058;52.308;20.924;2022-11-24T07:04:52;100203.55;;;-0.54;100.00
56174;BME280;42058;52.308;20.924;2022-11-24T07:07:18;100202.69;;;-0.53;100.00
56174;BME280;42058;52.308;20.924;2022-11-24T07:09:45;100204.44;;;-0.52;100.00
56174;BME280;42058;52.308;20.924;2022-11-24T07:12:11;100210.05;;;-0.53;100.00
56174;BME280;42058;52.308;20.924;2022-11-24T07:14:37;100218.66;;;-0.52;100.00
56174;BME280;42058;52.308;20.924;2022-11-24T07:17:03;100221.24;;;-0.52;100.00
56174;BME280;42058;52.308;20.924;2022-11-24T07:19:29;100227.27;;;-0.52;100.00
56174;BME280;42058;52.308;20.924;2022-11-24T07:21:56;100223.83;;;-0.52;100.00
56174;BME280;42058;52.308;20.924;2022-11-24T07:24:22;100225.95;;;-0.53;100.00
56174;BME280;42058;52.308;20.924;2022-11-24T07:26:48;100228.97;;;-0.54;100.00
56174;BME280;42058;52.308;20.924;2022-11-24T07:29:14;100226.39;;;-0.54;100.00
56174;BME280;42058;52.308;20.924;2022-11-24T07:31:40;100226.81;;;-0.54;100.00
56174;BME280;42058;52.308;20.924;2022-11-24T07:34:07;100229.83;;;-0.53;100.00
56174;BME280;42058;52.308;20.924;2022-11-24T07:36:33;100226.84;;;-0.53;100.00
56174;BME280;42058;52.308;20.924;2022-11-24T07:38:59;100221.24;;;-0.52;100.00
56174;BME280;42058;52.308;20.924;2022-11-24T07:41:25;100223.83;;;-0.52;100.00
56174;BME280;42058;52.308;20.924;2022-11-24T07:43:51;100227.70;;;-0.52;100.00
56174;BME280;42058;52.308;20.924;2022-11-24T07:46:18;100229.05;;;-0.49;100.00
56174;BME280;42058;52.308;20.924;2022-11-24T07:48:45;100235.92;;;-0.50;100.00
56174;BME280;42058;52.308;20.924;2022-11-24T07:51:12;100233.77;;;-0.50;100.00
56174;BME280;42058;52.308;20.924;2022-11-24T07:53:38;100232.47;;;-0.50;100.00
56174;BME280;42058;52.308;20.924;2022-11-24T07:56:04;100232.94;;;-0.49;100.00
56174;BME280;42058;52.308;20.924;2022-11-24T07:58:33;100240.28;;;-0.47;100.00
56174;BME280;42058;52.308;20.924;2022-11-24T08:01:12;100236.80;;;-0.48;100.00
56174;BME280;42058;52.308;20.924;2022-11-24T08:03:40;100233.80;;;-0.49;100.00
56174;BME280;42058;52.308;20.924;2022-11-24T08:06:08;100233.80;;;-0.49;100.00
56174;BME280;42058;52.308;20.924;2022-11-24T08:08:34;100240.28;;;-0.47;100.00
56174;BME280;42058;52.308;20.924;2022-11-24T08:11:09;100240.28;;;-0.47;100.00
56174;BME280;42058;52.308;20.924;2022-11-24T08:13:36;100238.56;;;-0.47;100.00
56174;BME280;42058;52.308;20.924;2022-11-24T08:16:05;100242.47;;;-0.45;100.00
56174;BME280;42058;52.308;20.924;2022-11-24T08:18:33;100248.92;;;-0.45;100.00
56174;BME280;42058;52.308;20.924;2022-11-24T08:21:00;100243.75;;;-0.45;100.00
56174;BME280;42058;52.308;20.924;2022-11-24T08:23:27;100247.20;;;-0.45;100.00
56174;BME280;42058;52.308;20.924;2022-11-24T08:25:53;100240.31;;;-0.44;100.00
56174;BME280;42058;52.308;20.924;2022-11-24T08:28:22;100239.05;;;-0.43;100.00
56174;BME280;42058;52.308;20.924;2022-11-24T08:30:48;100245.53;;;-0.41;100.00
56174;BME280;42058;52.308;20.924;2022-11-24T08:33:14;100246.45;;;-0.37;100.00
56174;BME280;42058;52.308;20.924;2022-11-24T08:35:40;100237.43;;;-0.36;100.00
56174;BME280;42058;52.308;20.924;2022-11-24T08:38:06;100235.27;;;-0.35;100.00
56174;BME280;42058;52.308;20.924;2022-11-24T08:40:33;100236.19;;;-0.33;100.00
56174;BME280;42058;52.308;20.924;2022-11-24T08:43:00;100239.61;;;-0.34;100.00
56174;BME280;42058;52.308;20.924;2022-11-24T08:45:27;100250.41;;;-0.31;100.00
56174;BME280;42058;52.308;20.924;2022-11-24T08:47:54;100254.72;;;-0.32;100.00
56174;BME280;42058;52.308;20.924;2022-11-24T08:50:22;100249.55;;;-0.32;100.00
56174;BME280;42058;52.308;20.924;2022-11-24T08:52:51;100247.42;;;-0.31;100.00
56174;BME280;42058;52.308;20.924;2022-11-24T08:55:19;100246.12;;;-0.31;100.00
56174;BME280;42058;52.308;20.924;2022-11-24T08:57:45;100243.14;;;-0.29;100.00
56174;BME280;42058;52.308;20.924;2022-11-24T09:00:12;100255.66;;;-0.27;100.00
56174;BME280;42058;52.308;20.924;2022-11-24T09:02:39;100259.56;;;-0.25;100.00
56174;BME280;42058;52.308;20.924;2022-11-24T09:05:07;100251.38;;;-0.25;100.00
56174;BME280;42058;52.308;20.924;2022-11-24T09:07:33;100256.12;;;-0.24;100.00
56174;BME280;42058;52.308;20.924;2022-11-24T09:10:00;100254.84;;;-0.23;100.00
56174;BME280;42058;52.308;20.924;2022-11-24T09:12:26;100251.84;;;-0.24;100.00
56174;BME280;42058;52.308;20.924;2022-11-24T09:14:52;100260.89;;;-0.24;100.00
56174;BME280;42058;52.308;20.924;2022-11-24T09:17:18;100259.59;;;-0.24;100.00
56174;BME280;42058;52.308;20.924;2022-11-24T09:19:45;100266.48;;;-0.23;100.00
56174;BME280;42058;52.308;20.924;2022-11-24T09:22:11;100263.90;;;-0.23;100.00
56174;BME280;42058;52.308;20.924;2022-11-24T09:24:37;100273.44;;;-0.18;100.00
56174;BME280;42058;52.308;20.924;2022-11-24T09:27:04;100275.65;;;-0.16;100.00
56174;BME280;42058;52.308;20.924;2022-11-24T09:29:30;100276.08;;;-0.15;100.00
56174;BME280;42058;52.308;20.924;2022-11-24T09:31:56;100266.62;;;-0.13;100.00
56174;BME280;42058;52.308;20.924;2022-11-24T09:34:22;100273.97;;;-0.11;100.00
56174;BME280;42058;52.308;20.924;2022-11-24T09:36:48;100275.70;;;-0.12;100.00
56174;BME280;42058;52.308;20.924;2022-11-24T09:39:16;100277.02;;;-0.10;100.00
56174;BME280;42058;52.308;20.924;2022-11-24T09:42:12;100282.19;;;-0.10;100.00
56174;BME280;42058;52.308;20.924;2022-11-24T09:47:53;100290.41;;;-0.08;100.00
56174;BME280;42058;52.308;20.924;2022-11-24T09:50:27;100292.56;;;-0.09;100.00
56174;BME280;42058;52.308;20.924;2022-11-24T09:53:28;100296.44;;;-0.09;100.00
56174;BME280;42058;52.308;20.924;2022-11-24T09:55:55;100293.42;;;-0.08;100.00
56174;BME280;42058;52.308;20.924;2022-11-24T09:58:44;100299.05;;;-0.07;100.00
56174;BME280;42058;52.308;20.924;2022-11-24T10:01:29;100292.13;;;-0.08;100.00
56174;BME280;42058;52.308;20.924;2022-11-24T10:04:08;100294.72;;;-0.08;100.00
56174;BME280;42058;52.308;20.924;2022-11-24T10:06:47;100296.88;;;-0.08;100.00
56174;BME280;42058;52.308;20.924;2022-11-24T10:09:53;100296.47;;;-0.07;100.00
56174;BME280;42058;52.308;20.924;2022-11-24T10:12:56;100291.73;;;-0.06;100.00
56174;BME280;42058;52.308;20.924;2022-11-24T10:15:30;100293.88;;;-0.07;100.00
56174;BME280;42058;52.308;20.924;2022-11-24T10:18:27;100299.13;;;-0.01;100.00
56174;BME280;42058;52.308;20.924;2022-11-24T10:26:39;100286.66;;;0.02;100.00
56174;BME280;42058;52.308;20.924;2022-11-24T10:29:29;100290.13;;;0.02;100.00
56174;BME280;42058;52.308;20.924;2022-11-24T10:32:03;100274.61;;;0.04;100.00
56174;BME280;42058;52.308;20.924;2022-11-24T10:34:39;100272.05;;;0.05;100.00
56174;BME280;42058;52.308;20.924;2022-11-24T10:37:13;100266.06;;;0.08;100.00
56174;BME280;42058;52.308;20.924;2022-11-24T10:40:08;100272.98;;;0.10;100.00
56174;BME280;42058;52.308;20.924;2022-11-24T10:42:35;100268.70;;;0.12;100.00
56174;BME280;42058;52.308;20.924;2022-11-24T10:45:10;100271.30;;;0.14;100.00
56174;BME280;42058;52.308;20.924;2022-11-24T10:47:39;100278.26;;;0.16;100.00
56174;BME280;42058;52.308;20.924;2022-11-24T10:50:26;100281.73;;;0.18;100.00
56174;BME280;42058;52.308;20.924;2022-11-24T10:56:00;100280.03;;;0.21;100.00
56174;BME280;42058;52.308;20.924;2022-11-24T10:58:34;100282.62;;;0.21;100.00
56174;BME280;42058;52.308;20.924;2022-11-24T11:03:55;100280.05;;;0.24;100.00
56174;BME280;42058;52.308;20.924;2022-11-24T11:06:27;100282.20;;;0.23;100.00
56174;BME280;42058;52.308;20.924;2022-11-24T11:09:30;100276.16;;;0.24;100.00
56174;BME280;42058;52.308;20.924;2022-11-24T11:11:34;100278.35;;;0.24;100.00
56174;BME280;42058;52.308;20.924;2022-11-24T11:14:04;100272.74;;;0.25;100.00
56174;BME280;42058;52.308;20.924;2022-11-24T11:16:34;100279.21;;;0.25;100.00
56174;BME280;42058;52.308;20.924;2022-11-24T11:19:52;100280.97;;;0.26;100.00
56174;BME280;42058;52.308;20.924;2022-11-24T11:21:59;100280.51;;;0.25;100.00
56174;BME280;42058;52.308;20.924;2022-11-24T11:24:40;100285.70;;;0.26;100.00
56174;BME280;42058;52.308;20.924;2022-11-24T11:27:22;100286.56;;;0.27;100.00
56174;BME280;42058;52.308;20.924;2022-11-24T11:29:50;100285.30;;;0.28;100.00
56174;BME280;42058;52.308;20.924;2022-11-24T11:32:22;100288.75;;;0.29;100.00
56174;BME280;42058;52.308;20.924;2022-11-24T11:34:55;100288.80;;;0.32;100.00
56174;BME280;42058;52.308;20.924;2022-11-24T11:37:27;100287.96;;;0.33;100.00
56174;BME280;42058;52.308;20.924;2022-11-24T11:39:56;100294.43;;;0.33;100.00
56174;BME280;42058;52.308;20.924;2022-11-24T11:42:37;100288.39;;;0.34;100.00
56174;BME280;42058;52.308;20.924;2022-11-24T11:45:20;100296.61;;;0.35;100.00
56174;BME280;42058;52.308;20.924;2022-11-24T11:48:01;100294.42;;;0.34;100.00
56174;BME280;42058;52.308;20.924;2022-11-24T11:50:28;100292.73;;;0.35;100.00
56174;BME280;42058;52.308;20.924;2022-11-24T11:56:01;100303.53;;;0.37;100.00
56174;BME280;42058;52.308;20.924;2022-11-24T12:07:56;100304.39;;;0.38;100.00
56174;BME280;42058;52.308;20.924;2022-11-24T12:15:54;100304.38;;;0.35;100.00
56174;BME280;42058;52.308;20.924;2022-11-24T12:21:33;100301.79;;;0.35;100.00
56174;BME280;42058;52.308;20.924;2022-11-24T12:26:51;100288.84;;;0.35;100.00
56174;BME280;42058;52.308;20.924;2022-11-24T12:43:51;100292.32;;;0.37;100.00
56174;BME280;42058;52.308;20.924;2022-11-24T12:49:28;100286.69;;;0.36;100.00
56174;BME280;42058;52.308;20.924;2022-11-24T12:52:24;100286.25;;;0.36;100.00
56174;BME280;42058;52.308;20.924;2022-11-24T12:54:55;100294.04;;;0.38;100.00
56174;BME280;42058;52.308;20.924;2022-11-24T12:57:40;100285.84;;;0.37;100.00
56174;BME280;42058;52.308;20.924;2022-11-24T13:02:54;100287.98;;;0.36;100.00
56174;BME280;42058;52.308;20.924;2022-11-24T13:08:13;100291.44;;;0.35;100.00
56174;BME280;42058;52.308;20.924;2022-11-24T13:10:41;100290.56;;;0.36;100.00
56174;BME280;42058;52.308;20.924;2022-11-24T13:13:09;100289.70;;;0.35;100.00
56174;BME280;42058;52.308;20.924;2022-11-24T13:18:46;100296.23;;;0.38;100.00
56174;BME280;42058;52.308;20.924;2022-11-24T13:24:20;100293.66;;;0.42;100.00
56174;BME280;42058;52.308;20.924;2022-11-24T13:26:50;100290.66;;;0.42;100.00
56174;BME280;42058;52.308;20.924;2022-11-24T13:29:31;100296.27;;;0.43;100.00
56174;BME280;42058;52.308;20.924;2022-11-24T13:39:57;100295.91;;;0.48;100.00
56174;BME280;42058;52.308;20.924;2022-11-24T13:42:26;100298.50;;;0.48;100.00
56174;BME280;42058;52.308;20.924;2022-11-24T13:47:43;100308.84;;;0.48;100.00
56174;BME280;42058;52.308;20.924;2022-11-24T13:52:54;100299.79;;;0.48;100.00
56174;BME280;42058;52.308;20.924;2022-11-24T13:55:28;100304.51;;;0.47;100.00
56174;BME280;42058;52.308;20.924;2022-11-24T13:58:18;100297.61;;;0.46;100.00
56174;BME280;42058;52.308;20.924;2022-11-24T14:00:32;100304.11;;;0.48;100.00
56174;BME280;42058;52.308;20.924;2022-11-24T14:03:21;100297.17;;;0.47;100.00
56174;BME280;42058;52.308;20.924;2022-11-24T14:05:51;100304.97;;;0.48;100.00
56174;BME280;42058;52.308;20.924;2022-11-24T14:08:20;100308.84;;;0.48;100.00